Time;durP1;ratioP1;P1;durP2;ratioP2;P2;SDS_P1;SDS_P2;PMS_P1;PMS_P2;Temp;Humidity;BMP_temperature;BMP_pressure;BME280_temperature;BME280_humidity;BME280_pressure;Samples;Min_cycle;Max_cycle;Signal;HPM_P1;HPM_P2
2021/06/24 00:00:56;;;;;;;10.85;3.65;;;16.10;69.00;;;;;;6092451;23;20003;-67
2021/06/24 00:03:28;;;;;;;10.95;3.10;;;16.10;68.90;;;;;;6090979;23;20030;-68
2021/06/24 00:05:55;;;;;;;12.52;3.38;;;16.10;68.90;;;;;;6092623;23;20324;-67
2021/06/24 00:08:23;;;;;;;9.82;3.10;;;16.10;68.90;;;;;;6090935;23;20050;-67
2021/06/24 00:10:51;;;;;;;6.38;2.63;;;16.10;68.70;;;;;;6092517;23;19999;-68
2021/06/24 00:13:19;;;;;;;6.18;2.10;;;16.00;68.50;;;;;;6092809;23;19998;-68
2021/06/24 00:15:46;;;;;;;5.40;1.83;;;16.00;68.40;;;;;;6091431;23;20007;-67
2021/06/24 00:18:13;;;;;;;6.60;2.10;;;16.00;68.30;;;;;;6092091;23;20005;-68
2021/06/24 00:20:42;;;;;;;4.82;2.35;;;16.00;68.10;;;;;;6090769;23;20081;-67
2021/06/24 00:23:10;;;;;;;8.20;1.85;;;16.00;68.00;;;;;;6092069;23;19999;-68
2021/06/24 00:25:36;;;;;;;5.50;1.85;;;16.00;67.90;;;;;;6091435;23;20010;-67
2021/06/24 00:28:04;;;;;;;5.15;1.38;;;16.00;67.80;;;;;;6091851;23;20038;-68
2021/06/24 00:30:31;;;;;;;3.17;1.40;;;16.00;67.70;;;;;;6091892;23;20002;-67
2021/06/24 00:32:58;;;;;;;6.43;1.88;;;16.00;68.30;;;;;;6090959;23;20058;-68
2021/06/24 00:35:24;;;;;;;10.30;1.95;;;16.00;67.50;;;;;;6092304;23;20073;-67
2021/06/24 00:37:51;;;;;;;3.13;1.55;;;16.00;67.30;;;;;;6091192;23;20168;-68
2021/06/24 00:40:17;;;;;;;5.13;1.40;;;15.90;67.20;;;;;;6091741;23;20431;-68
2021/06/24 00:43:25;;;;;;;7.85;1.30;;;15.90;67.20;;;;;;6089071;23;20066;-67
2021/06/24 00:46:31;;;;;;;5.10;1.55;;;15.90;67.10;;;;;;6091195;23;20010;-68
2021/06/24 00:49:37;;;;;;;5.68;1.48;;;15.90;67.00;;;;;;6094420;23;20014;-68
2021/06/24 00:52:44;;;;;;;2.30;1.00;;;15.90;66.90;;;;;;6093726;23;20003;-68
2021/06/24 00:55:51;;;;;;;2.90;1.17;;;15.90;66.80;;;;;;6092898;23;20040;-68
2021/06/24 00:58:57;;;;;;;2.35;0.98;;;15.90;66.60;;;;;;6094099;23;20022;-68
2021/06/24 01:02:04;;;;;;;6.25;1.55;;;15.90;66.50;;;;;;6093847;23;20006;-68
2021/06/24 01:04:32;;;;;;;3.70;1.52;;;15.90;66.40;;;;;;6092985;23;20006;-67
2021/06/24 01:06:59;;;;;;;5.20;1.20;;;15.90;66.50;;;;;;6093513;23;20018;-68
2021/06/24 01:09:25;;;;;;;4.47;1.60;;;15.80;66.50;;;;;;6093228;23;20018;-68
2021/06/24 01:11:54;;;;;;;6.35;1.58;;;15.80;66.60;;;;;;6092841;23;20442;-68
2021/06/24 01:14:22;;;;;;;3.78;1.50;;;15.80;66.50;;;;;;6093615;23;19998;-67
2021/06/24 01:16:51;;;;;;;3.80;1.10;;;15.80;66.40;;;;;;6092483;23;20009;-68
2021/06/24 01:19:17;;;;;;;4.30;1.27;;;15.80;66.40;;;;;;6094134;23;20006;-68
2021/06/24 01:21:45;;;;;;;6.50;1.73;;;15.70;66.90;;;;;;6092599;23;20065;-68
2021/06/24 01:24:12;;;;;;;3.53;1.20;;;15.70;66.10;;;;;;6093753;23;20052;-68
2021/06/24 01:26:41;;;;;;;3.53;1.67;;;15.70;66.10;;;;;;6093430;23;20077;-68
2021/06/24 01:29:08;;;;;;;4.45;1.60;;;15.70;66.00;;;;;;6092657;23;20263;-67
2021/06/24 01:31:35;;;;;;;5.30;1.83;;;15.70;66.00;;;;;;6093857;23;19999;-68
2021/06/24 01:34:05;;;;;;;3.08;1.63;;;15.70;66.00;;;;;;6092178;23;19995;-67
2021/06/24 01:36:32;;;;;;;9.43;1.83;;;15.70;66.00;;;;;;6093759;23;20393;-68
2021/06/24 01:38:59;;;;;;;7.13;1.73;;;15.70;65.90;;;;;;6092087;23;20582;-68
2021/06/24 01:41:26;;;;;;;4.20;1.60;;;15.70;65.90;;;;;;6093609;23;20006;-68
2021/06/24 01:43:52;;;;;;;4.55;1.92;;;15.70;65.90;;;;;;6093128;23;20060;-67
2021/06/24 01:46:19;;;;;;;7.82;2.25;;;15.70;66.00;;;;;;6093054;23;20002;-67
2021/06/24 01:48:45;;;;;;;5.63;2.10;;;15.60;65.90;;;;;;6093834;23;20310;-68
2021/06/24 01:51:12;;;;;;;5.57;3.95;;;15.60;66.00;;;;;;6092107;23;20427;-67
2021/06/24 01:53:39;;;;;;;7.72;5.10;;;15.60;66.00;;;;;;6093694;23;20058;-67
2021/06/24 01:56:06;;;;;;;9.43;5.32;;;15.60;66.00;;;;;;6092114;23;20457;-68
2021/06/24 01:58:32;;;;;;;16.48;8.38;;;15.60;66.00;;;;;;6093414;23;20064;-68
2021/06/24 02:01:00;;;;;;;13.60;5.93;;;15.60;66.00;;;;;;6092593;23;20007;-67
2021/06/24 02:03:27;;;;;;;10.48;5.35;;;15.60;66.00;;;;;;6092690;23;19998;-68
2021/06/24 02:05:56;;;;;;;10.18;5.05;;;15.60;66.10;;;;;;6093567;23;20423;-67
2021/06/24 02:08:25;;;;;;;11.23;4.75;;;15.60;66.00;;;;;;6091362;23;20462;-67
2021/06/24 02:10:56;;;;;;;8.50;4.82;;;15.50;66.00;;;;;;6093286;23;20077;-68
2021/06/24 02:13:23;;;;;;;10.48;4.57;;;15.60;66.10;;;;;;6091908;23;19999;-67
2021/06/24 02:15:50;;;;;;;8.15;3.00;;;15.50;66.00;;;;;;6093536;23;19998;-68
2021/06/24 02:18:16;;;;;;;8.68;2.90;;;15.50;66.00;;;;;;6092577;23;20335;-68
2021/06/24 02:20:43;;;;;;;8.20;3.03;;;15.50;65.90;;;;;;6092832;23;20001;-68
2021/06/24 02:23:10;;;;;;;7.63;3.67;;;15.50;66.10;;;;;;6093086;23;20007;-68
2021/06/24 02:25:37;;;;;;;8.02;3.88;;;15.50;66.10;;;;;;6091883;23;20002;-67
2021/06/24 02:28:05;;;;;;;4.57;2.45;;;15.50;66.10;;;;;;6092899;23;20339;-67
2021/06/24 02:30:32;;;;;;;4.07;2.20;;;15.50;66.20;;;;;;6091685;23;20431;-67
2021/06/24 02:32:58;;;;;;;4.28;2.08;;;15.50;66.20;;;;;;6093063;23;20046;-67
2021/06/24 02:35:25;;;;;;;7.20;3.92;;;15.50;66.20;;;;;;6092088;23;20008;-68
2021/06/24 02:37:54;;;;;;;6.43;2.70;;;15.50;66.20;;;;;;6092775;23;20009;-68
2021/06/24 02:40:22;;;;;;;7.72;2.13;;;15.40;66.20;;;;;;6092480;23;20003;-67
2021/06/24 02:42:48;;;;;;;7.22;2.45;;;15.50;66.30;;;;;;6091936;23;20423;-68
2021/06/24 02:45:15;;;;;;;8.85;2.75;;;15.40;66.30;;;;;;6092831;23;19999;-67
2021/06/24 02:47:42;;;;;;;8.88;2.38;;;15.40;66.30;;;;;;6091484;23;20335;-67
2021/06/24 02:50:10;;;;;;;8.13;2.75;;;15.40;66.30;;;;;;6093302;23;20002;-67
2021/06/24 02:52:37;;;;;;;9.35;3.10;;;15.40;66.30;;;;;;6091627;23;20074;-67
2021/06/24 02:55:05;;;;;;;7.05;3.03;;;15.40;66.30;;;;;;6092580;23;20077;-68
2021/06/24 02:57:33;;;;;;;6.80;4.32;;;15.40;66.30;;;;;;6092409;23;20108;-67
2021/06/24 02:59:59;;;;;;;11.18;3.70;;;15.40;66.40;;;;;;6091880;23;20050;-67
2021/06/24 03:02:26;;;;;;;10.05;3.28;;;15.40;66.40;;;;;;6093298;23;20007;-68
2021/06/24 03:04:52;;;;;;;6.53;2.72;;;15.40;66.40;;;;;;6091472;23;20034;-68
2021/06/24 03:07:19;;;;;;;10.00;2.65;;;15.40;66.40;;;;;;6092313;23;20453;-67
2021/06/24 03:09:45;;;;;;;5.13;2.80;;;15.40;66.30;;;;;;6091170;23;20069;-67
2021/06/24 03:12:12;;;;;;;9.18;3.42;;;15.40;66.40;;;;;;6092617;23;20010;-68
2021/06/24 03:14:38;;;;;;;11.20;3.78;;;15.30;66.40;;;;;;6091530;23;20022;-67
2021/06/24 03:17:05;;;;;;;4.53;2.38;;;15.30;66.50;;;;;;6091195;23;20081;-67
2021/06/24 03:19:31;;;;;;;5.97;2.95;;;15.30;66.50;;;;;;6092394;23;20519;-68
2021/06/24 03:21:58;;;;;;;5.07;2.00;;;15.30;66.60;;;;;;6091316;23;20054;-67
2021/06/24 03:24:24;;;;;;;3.05;2.13;;;15.30;66.60;;;;;;6092868;23;20078;-67
2021/06/24 03:26:51;;;;;;;9.57;2.35;;;15.30;66.70;;;;;;6089662;23;20021;-67
2021/06/24 03:29:18;;;;;;;8.98;3.80;;;15.30;66.60;;;;;;6092644;23;20002;-68
2021/06/24 03:31:45;;;;;;;6.05;2.70;;;15.30;66.70;;;;;;6091402;23;20005;-67
2021/06/24 03:34:12;;;;;;;8.00;1.90;;;15.30;66.70;;;;;;6092011;23;20085;-68
2021/06/24 03:36:38;;;;;;;4.88;1.90;;;15.30;66.70;;;;;;6092688;23;20304;-67
2021/06/24 03:39:05;;;;;;;5.10;1.90;;;15.30;66.70;;;;;;6091774;23;20074;-67
2021/06/24 03:41:31;;;;;;;7.43;2.20;;;15.30;66.70;;;;;;6092705;23;20346;-68
2021/06/24 03:43:58;;;;;;;5.82;2.45;;;15.30;66.70;;;;;;6091190;23;20013;-67
2021/06/24 03:46:25;;;;;;;8.23;2.33;;;15.30;66.80;;;;;;6092284;23;20003;-68
2021/06/24 03:48:53;;;;;;;6.75;2.35;;;15.20;66.80;;;;;;6090998;23;20002;-67
2021/06/24 03:51:20;;;;;;;5.47;1.27;;;15.20;66.80;;;;;;6091957;23;20065;-67
2021/06/24 03:53:47;;;;;;;13.95;2.70;;;15.20;66.80;;;;;;6091879;23;20065;-67
2021/06/24 03:56:13;;;;;;;10.52;5.28;;;15.20;66.90;;;;;;6091377;23;19998;-68
2021/06/24 03:58:40;;;;;;;17.42;11.57;;;15.20;67.30;;;;;;6092176;23;20002;-67
2021/06/24 04:01:07;;;;;;;26.02;16.50;;;15.20;66.90;;;;;;6090922;23;20065;-66
2021/06/24 04:03:33;;;;;;;18.80;11.13;;;15.20;67.00;;;;;;6092164;23;20018;-69
2021/06/24 04:06:00;;;;;;;15.18;7.55;;;15.20;66.90;;;;;;6089141;23;20010;-66
2021/06/24 04:08:28;;;;;;;16.05;8.23;;;15.20;67.00;;;;;;6088995;23;20029;-67
2021/06/24 04:10:55;;;;;;;10.63;5.00;;;15.20;67.10;;;;;;6088720;23;20010;-68
2021/06/24 04:13:24;;;;;;;10.70;4.47;;;15.20;67.20;;;;;;6088905;23;20316;-67
2021/06/24 04:15:51;;;;;;;8.45;4.28;;;15.20;67.20;;;;;;6091513;23;20022;-70
2021/06/24 04:18:17;;;;;;;12.10;4.30;;;15.20;67.30;;;;;;6090971;23;20006;-66
2021/06/24 04:20:45;;;;;;;9.43;5.25;;;15.20;67.30;;;;;;6091284;23;20058;-67
2021/06/24 04:23:11;;;;;;;17.02;9.95;;;15.20;67.50;;;;;;6090752;23;20029;-66
2021/06/24 04:25:38;;;;;;;21.98;14.35;;;15.20;67.50;;;;;;6091317;23;20017;-66
2021/06/24 04:28:05;;;;;;;20.92;11.63;;;15.20;67.60;;;;;;6090499;23;20010;-69
2021/06/24 04:30:32;;;;;;;21.30;11.65;;;15.20;67.80;;;;;;6090905;23;20415;-66
2021/06/24 04:33:00;;;;;;;16.83;9.10;;;15.20;68.00;;;;;;6091072;23;20069;-66
2021/06/24 04:35:28;;;;;;;17.85;6.15;;;15.20;68.00;;;;;;6090914;23;20002;-66
2021/06/24 04:37:54;;;;;;;13.02;5.05;;;15.20;68.10;;;;;;6091296;23;20010;-70
2021/06/24 04:40:22;;;;;;;13.75;5.28;;;15.20;68.30;;;;;;6089848;23;20003;-67
2021/06/24 04:42:49;;;;;;;10.18;4.60;;;15.20;68.50;;;;;;6091407;23;20026;-67
2021/06/24 04:45:16;;;;;;;11.02;4.90;;;15.20;68.70;;;;;;6090340;23;20030;-68
2021/06/24 04:47:43;;;;;;;10.57;5.47;;;15.20;68.90;;;;;;6089714;23;20101;-69
2021/06/24 04:50:10;;;;;;;17.98;4.88;;;15.20;69.10;;;;;;6089417;23;20073;-67
2021/06/24 04:52:38;;;;;;;14.65;4.35;;;15.20;69.30;;;;;;6088600;23;20407;-66
2021/06/24 04:55:05;;;;;;;13.90;5.07;;;15.20;69.40;;;;;;6089756;23;19999;-67
2021/06/24 04:57:32;;;;;;;12.52;4.13;;;15.10;69.50;;;;;;6088863;23;20014;-67
2021/06/24 04:59:59;;;;;;;8.60;4.05;;;15.20;70.30;;;;;;6089967;23;20113;-67
2021/06/24 05:02:26;;;;;;;13.73;4.00;;;15.20;69.80;;;;;;6088467;23;20006;-66
2021/06/24 05:04:54;;;;;;;12.93;4.07;;;15.20;69.90;;;;;;6089805;23;20133;-67
2021/06/24 05:07:21;;;;;;;13.93;4.90;;;15.10;69.90;;;;;;6089538;23;20076;-66
2021/06/24 05:09:49;;;;;;;11.05;5.80;;;15.10;70.10;;;;;;6088929;23;20018;-67
2021/06/24 05:12:15;;;;;;;10.70;4.05;;;15.10;70.20;;;;;;6090036;23;20090;-66
2021/06/24 05:14:42;;;;;;;16.75;5.57;;;15.10;70.30;;;;;;6088412;23;20002;-66
2021/06/24 05:17:15;;;;;;;8.95;3.67;;;15.10;70.40;;;;;;6089638;23;20006;-67
2021/06/24 05:19:43;;;;;;;14.52;5.85;;;15.10;71.20;;;;;;6088583;23;20085;-66
2021/06/24 05:22:11;;;;;;;15.98;5.85;;;15.10;70.60;;;;;;6090421;23;20007;-66
2021/06/24 05:24:39;;;;;;;19.48;6.40;;;15.10;70.60;;;;;;6089694;23;20007;-66
2021/06/24 05:27:07;;;;;;;9.73;5.47;;;15.10;70.70;;;;;;6089328;23;20015;-66
2021/06/24 05:29:35;;;;;;;12.32;5.63;;;15.10;70.80;;;;;;6089765;23;20006;-66
2021/06/24 05:32:04;;;;;;;12.95;5.72;;;15.10;70.80;;;;;;6090658;23;20009;-66
2021/06/24 05:34:32;;;;;;;18.63;6.97;;;15.10;70.90;;;;;;6089575;23;20006;-67
2021/06/24 05:37:00;;;;;;;16.02;4.82;;;15.10;70.90;;;;;;6091113;23;20331;-66
2021/06/24 05:39:27;;;;;;;16.92;6.60;;;15.10;71.00;;;;;;6092810;23;20013;-65
2021/06/24 05:41:57;;;;;;;10.82;4.45;;;15.10;71.00;;;;;;6093174;23;20033;-67
2021/06/24 05:44:24;;;;;;;12.60;5.40;;;15.10;71.10;;;;;;6091997;23;19998;-67
2021/06/24 05:46:51;;;;;;;11.88;5.10;;;15.10;71.10;;;;;;6094099;23;20006;-67
2021/06/24 05:49:18;;;;;;;14.15;4.43;;;15.10;71.10;;;;;;6092795;23;20010;-67
2021/06/24 05:51:44;;;;;;;14.45;6.22;;;15.10;71.20;;;;;;6093840;23;20426;-66
2021/06/24 05:54:11;;;;;;;10.68;5.18;;;15.10;71.30;;;;;;6092272;23;20009;-67
2021/06/24 05:56:38;;;;;;;12.77;6.13;;;15.10;71.40;;;;;;6093570;23;20006;-66
2021/06/24 05:59:04;;;;;;;11.30;4.90;;;15.10;71.50;;;;;;6092336;23;20010;-66
2021/06/24 06:01:31;;;;;;;20.98;7.75;;;15.00;71.50;;;;;;6093688;23;20026;-66
2021/06/24 06:03:57;;;;;;;15.15;4.97;;;15.00;71.60;;;;;;6093901;23;20049;-66
2021/06/24 06:06:24;;;;;;;12.35;5.47;;;15.10;71.80;;;;;;6092091;23;20073;-66
2021/06/24 06:08:50;;;;;;;8.90;4.97;;;15.10;71.90;;;;;;6093458;23;20025;-66
2021/06/24 06:11:18;;;;;;;10.98;5.78;;;15.10;72.00;;;;;;6092474;23;20003;-66
2021/06/24 06:13:47;;;;;;;11.77;6.05;;;15.10;72.00;;;;;;6093182;23;20107;-65
2021/06/24 06:16:14;;;;;;;10.60;4.97;;;15.00;72.10;;;;;;6092282;23;20006;-65
2021/06/24 06:18:40;;;;;;;9.85;4.68;;;15.10;72.10;;;;;;6093036;23;20007;-67
2021/06/24 06:21:07;;;;;;;14.23;5.82;;;15.10;72.30;;;;;;6092166;23;20351;-66
2021/06/24 06:23:34;;;;;;;14.20;4.85;;;15.00;72.30;;;;;;6092419;23;20440;-66
2021/06/24 06:26:00;;;;;;;13.35;5.38;;;15.10;72.40;;;;;;6093025;23;20414;-66
2021/06/24 06:28:27;;;;;;;14.15;5.78;;;15.10;72.50;;;;;;6091979;23;20014;-66
2021/06/24 06:30:56;;;;;;;13.63;4.82;;;15.00;72.50;;;;;;6093141;23;20006;-65
2021/06/24 06:33:23;;;;;;;12.00;4.55;;;15.10;72.70;;;;;;6091928;23;19999;-66
2021/06/24 06:35:51;;;;;;;11.70;4.18;;;15.10;72.80;;;;;;6093802;23;20416;-66
2021/06/24 06:38:18;;;;;;;10.90;4.50;;;15.10;72.90;;;;;;6092873;23;20007;-65
2021/06/24 06:40:44;;;;;;;11.55;4.22;;;15.10;73.00;;;;;;6091947;23;20086;-66
2021/06/24 06:43:12;;;;;;;13.65;5.03;;;15.10;73.00;;;;;;6092959;23;20029;-66
2021/06/24 06:45:39;;;;;;;13.00;4.22;;;15.10;73.00;;;;;;6091496;23;20491;-65
2021/06/24 06:48:06;;;;;;;9.13;3.15;;;15.10;73.00;;;;;;6092593;23;20093;-66
2021/06/24 06:50:32;;;;;;;6.35;3.47;;;15.10;72.80;;;;;;6091497;23;19998;-66
2021/06/24 06:52:59;;;;;;;12.02;4.28;;;15.10;72.80;;;;;;6093669;23;20420;-66
2021/06/24 06:55:28;;;;;;;5.72;3.60;;;15.10;72.70;;;;;;6091998;23;20591;-66
2021/06/24 06:57:56;;;;;;;10.02;2.70;;;15.10;72.60;;;;;;6092277;23;19994;-65
2021/06/24 07:00:28;;;;;;;7.85;4.05;;;15.10;72.60;;;;;;6093739;23;20411;-66
2021/06/24 07:02:55;;;;;;;5.70;2.92;;;15.10;72.50;;;;;;6092111;23;20011;-66
2021/06/24 07:05:21;;;;;;;8.23;3.35;;;15.10;72.40;;;;;;6093093;23;20347;-66
2021/06/24 07:07:48;;;;;;;7.28;3.70;;;15.10;72.40;;;;;;6091508;23;20348;-66
2021/06/24 07:10:15;;;;;;;6.38;3.35;;;15.20;72.40;;;;;;6092417;23;20014;-66
2021/06/24 07:12:42;;;;;;;13.35;4.28;;;15.20;72.30;;;;;;6092414;23;20342;-66
2021/06/24 07:15:09;;;;;;;13.32;5.03;;;15.10;72.20;;;;;;6092492;23;20017;-66
2021/06/24 07:17:36;;;;;;;9.30;4.38;;;15.20;72.30;;;;;;6092743;23;19999;-66
2021/06/24 07:20:04;;;;;;;6.10;3.22;;;15.20;72.30;;;;;;6091526;23;20385;-66
2021/06/24 07:22:31;;;;;;;6.32;2.85;;;15.20;72.30;;;;;;6092655;23;20077;-66
2021/06/24 07:24:57;;;;;;;6.97;3.15;;;15.20;72.30;;;;;;6091699;23;20059;-65
2021/06/24 07:27:24;;;;;;;10.10;3.08;;;15.20;72.30;;;;;;6092438;23;20101;-66
2021/06/24 07:29:50;;;;;;;8.10;2.55;;;15.20;72.30;;;;;;6091915;23;20330;-66
2021/06/24 07:32:17;;;;;;;7.70;2.50;;;15.20;72.30;;;;;;6092502;23;20011;-65
2021/06/24 07:34:43;;;;;;;5.60;2.60;;;15.20;72.30;;;;;;6092367;23;20005;-66
2021/06/24 07:37:10;;;;;;;9.63;2.88;;;15.20;72.30;;;;;;6091656;23;20005;-66
2021/06/24 07:39:36;;;;;;;7.60;3.08;;;15.20;72.20;;;;;;6092385;23;20005;-66
2021/06/24 07:42:03;;;;;;;10.10;3.03;;;15.20;72.30;;;;;;6091399;23;20011;-67
2021/06/24 07:44:30;;;;;;;13.95;3.60;;;15.20;72.20;;;;;;6092391;23;19998;-67
2021/06/24 07:46:56;;;;;;;8.27;3.20;;;15.20;72.20;;;;;;6089510;23;20018;-66
2021/06/24 07:49:23;;;;;;;5.60;3.00;;;15.20;72.30;;;;;;6092555;23;19999;-66
2021/06/24 07:51:50;;;;;;;7.35;2.70;;;15.20;72.30;;;;;;6091870;23;20007;-67
2021/06/24 07:54:16;;;;;;;8.27;2.90;;;15.20;72.30;;;;;;6091453;23;19998;-66
2021/06/24 07:56:43;;;;;;;8.98;3.40;;;15.20;72.40;;;;;;6092671;23;20057;-66
2021/06/24 07:59:12;;;;;;;10.10;4.40;;;15.30;72.50;;;;;;6090964;23;20073;-66
2021/06/24 08:01:42;;;;;;;7.32;3.95;;;15.30;72.50;;;;;;6092702;23;20037;-66
2021/06/24 08:04:10;;;;;;;7.55;4.13;;;15.30;72.50;;;;;;6091232;23;20010;-66
2021/06/24 08:06:37;;;;;;;9.05;3.92;;;15.30;72.50;;;;;;6092928;23;20010;-66
2021/06/24 08:09:11;;;;;;;15.63;5.45;;;15.30;72.50;;;;;;6091968;23;20025;-66
2021/06/24 08:11:38;;;;;;;7.50;3.47;;;15.30;72.50;;;;;;6091536;23;20010;-66
2021/06/24 08:14:05;;;;;;;8.88;2.90;;;15.40;72.40;;;;;;6092597;23;20138;-66
2021/06/24 08:16:31;;;;;;;9.48;3.40;;;15.40;72.30;;;;;;6091130;23;20018;-65
2021/06/24 08:18:58;;;;;;;12.30;3.63;;;15.40;72.10;;;;;;6092174;23;20010;-66
2021/06/24 08:21:25;;;;;;;9.52;2.92;;;15.40;72.60;;;;;;6091217;23;20002;-66
2021/06/24 08:23:51;;;;;;;7.38;3.08;;;15.50;71.80;;;;;;6092020;23;20015;-66
2021/06/24 08:26:18;;;;;;;9.35;2.40;;;15.50;71.60;;;;;;6092174;23;20077;-65
2021/06/24 08:28:45;;;;;;;6.72;2.70;;;15.50;71.50;;;;;;6091543;23;20330;-66
2021/06/24 08:31:11;;;;;;;5.10;2.40;;;15.60;71.50;;;;;;6092248;23;20415;-66
2021/06/24 08:33:38;;;;;;;13.55;3.25;;;15.60;71.20;;;;;;6090911;23;20305;-66
2021/06/24 08:36:05;;;;;;;7.07;2.90;;;15.60;70.90;;;;;;6092102;23;20065;-66
2021/06/24 08:38:32;;;;;;;8.82;2.45;;;15.70;70.60;;;;;;6090858;23;19998;-65
2021/06/24 08:41:00;;;;;;;7.32;2.00;;;15.70;70.30;;;;;;6092455;23;20030;-66
2021/06/24 08:43:27;;;;;;;3.40;2.00;;;15.70;69.90;;;;;;6091167;23;20474;-65
2021/06/24 08:46:03;;;;;;;6.82;2.47;;;15.80;69.70;;;;;;6091697;23;20037;-66
2021/06/24 08:48:37;;;;;;;4.75;1.77;;;15.80;69.50;;;;;;6092415;23;20014;-66
2021/06/24 08:51:05;;;;;;;11.20;2.30;;;15.80;69.20;;;;;;6091326;23;20083;-67
2021/06/24 08:53:32;;;;;;;6.25;2.45;;;15.90;69.00;;;;;;6092557;23;20407;-66
2021/06/24 08:56:00;;;;;;;7.85;2.58;;;15.90;68.70;;;;;;6091176;23;20057;-66
2021/06/24 08:58:26;;;;;;;10.05;2.22;;;15.90;68.50;;;;;;6091983;23;20327;-67
2021/06/24 09:00:54;;;;;;;7.20;2.38;;;16.00;68.30;;;;;;6091299;23;20423;-66
2021/06/24 09:03:27;;;;;;;6.03;1.92;;;16.00;68.20;;;;;;6091331;23;20032;-67
2021/06/24 09:06:00;;;;;;;6.38;2.00;;;16.00;68.10;;;;;;6093944;23;20013;-67
2021/06/24 09:08:38;;;;;;;7.32;2.42;;;16.10;68.10;;;;;;6093022;23;20014;-66
2021/06/24 09:11:24;;;;;;;8.45;3.08;;;16.10;68.10;;;;;;6094538;23;20028;-66
2021/06/24 09:14:16;;;;;;;10.07;2.20;;;16.20;68.00;;;;;;6093630;23;20006;-67
2021/06/24 09:16:45;;;;;;;9.07;2.75;;;16.20;68.00;;;;;;6093445;23;20005;-67
2021/06/24 09:19:23;;;;;;;10.15;2.92;;;16.20;67.80;;;;;;6094167;23;20731;-66
2021/06/24 09:21:59;;;;;;;7.18;2.60;;;16.30;67.60;;;;;;6092533;23;20002;-67
2021/06/24 09:24:48;;;;;;;8.93;3.53;;;16.30;67.40;;;;;;6094612;23;20010;-67
2021/06/24 09:27:18;;;;;;;5.72;3.15;;;16.40;67.30;;;;;;6093337;23;20014;-67
2021/06/24 09:30:01;;;;;;;6.57;3.33;;;16.40;67.20;;;;;;6092777;23;20435;-67
2021/06/24 09:32:48;;;;;;;9.40;3.45;;;16.40;67.00;;;;;;6093816;23;20082;-66
2021/06/24 09:35:23;;;;;;;5.93;2.75;;;16.50;66.80;;;;;;6092607;23;20004;-66
2021/06/24 09:38:08;;;;;;;11.02;3.55;;;16.50;66.50;;;;;;6093550;23;19999;-66
2021/06/24 09:40:47;;;;;;;12.38;3.85;;;16.50;66.10;;;;;;6093839;23;20006;-67
2021/06/24 09:43:35;;;;;;;7.30;3.00;;;16.60;65.90;;;;;;6092677;23;20371;-67
2021/06/24 09:46:06;;;;;;;5.90;2.78;;;16.60;65.70;;;;;;6093483;23;20002;-66
2021/06/24 09:48:57;;;;;;;9.82;2.90;;;16.60;65.40;;;;;;6092520;23;20041;-67
2021/06/24 09:51:32;;;;;;;7.32;2.95;;;16.70;65.10;;;;;;6092474;23;20073;-66
2021/06/24 09:54:06;;;;;;;6.95;3.00;;;16.70;65.00;;;;;;6093354;23;20439;-66
2021/06/24 09:56:34;;;;;;;6.63;2.63;;;16.80;64.80;;;;;;6092581;23;20043;-67
2021/06/24 09:59:04;;;;;;;12.30;3.58;;;16.80;64.70;;;;;;6093441;23;20007;-68
2021/06/24 10:01:38;;;;;;;7.35;2.33;;;16.90;64.40;;;;;;6093057;23;20002;-66
2021/06/24 10:04:31;;;;;;;7.72;2.95;;;16.90;64.00;;;;;;6093115;23;20308;-67
2021/06/24 10:07:10;;;;;;;8.55;3.17;;;16.90;63.70;;;;;;6093332;23;20471;-67
2021/06/24 10:09:40;;;;;;;8.77;3.33;;;17.00;63.60;;;;;;6091925;23;20073;-66
2021/06/24 10:12:09;;;;;;;5.75;3.10;;;17.00;64.10;;;;;;6093644;23;20411;-67
2021/06/24 10:14:36;;;;;;;10.93;3.50;;;17.10;63.30;;;;;;6092660;23;20002;-67
2021/06/24 10:17:04;;;;;;;12.90;4.50;;;17.10;63.20;;;;;;6092260;23;19999;-66
2021/06/24 10:19:32;;;;;;;6.90;2.80;;;17.20;63.30;;;;;;6093344;23;19999;-67
2021/06/24 10:22:22;;;;;;;3.97;2.20;;;17.20;63.10;;;;;;6091949;23;19998;-67
2021/06/24 10:25:05;;;;;;;8.60;3.55;;;17.30;62.80;;;;;;6093390;23;20006;-67
2021/06/24 10:27:36;;;;;;;7.85;2.75;;;17.30;62.30;;;;;;6092525;23;20014;-66
2021/06/24 10:30:18;;;;;;;9.85;3.28;;;17.40;62.10;;;;;;6092491;23;20313;-67
2021/06/24 10:33:03;;;;;;;8.43;2.47;;;17.40;61.70;;;;;;6093866;23;20029;-67
2021/06/24 10:36:10;;;;;;;4.22;2.35;;;17.50;61.40;;;;;;6091885;23;20002;-67
2021/06/24 10:39:22;;;;;;;6.10;2.92;;;17.50;61.10;;;;;;6092806;23;20007;-67
2021/06/24 10:42:20;;;;;;;11.95;3.28;;;17.60;60.50;;;;;;6093110;23;20038;-67
2021/06/24 10:45:32;;;;;;;7.75;2.67;;;17.70;60.00;;;;;;6091903;23;20435;-67
2021/06/24 10:48:44;;;;;;;6.88;4.22;;;17.70;59.50;;;;;;6091607;23;20018;-67
2021/06/24 10:51:53;;;;;;;12.18;2.88;;;17.80;59.20;;;;;;6092673;23;20344;-67
2021/06/24 10:54:59;;;;;;;8.98;4.10;;;17.90;58.90;;;;;;6093030;23;20541;-67
2021/06/24 10:58:12;;;;;;;8.10;2.60;;;17.90;58.60;;;;;;6091645;23;20675;-67
2021/06/24 11:01:24;;;;;;;6.28;2.42;;;18.00;58.50;;;;;;6091764;23;20111;-67
2021/06/24 11:04:30;;;;;;;8.45;3.13;;;18.00;58.70;;;;;;6092708;23;20590;-67
2021/06/24 11:07:36;;;;;;;6.38;2.58;;;18.10;58.30;;;;;;6091979;23;20018;-67
2021/06/24 11:10:53;;;;;;;12.70;3.22;;;18.10;58.00;;;;;;6091188;23;20089;-66
2021/06/24 11:13:41;;;;;;;5.05;2.08;;;18.20;57.50;;;;;;6092281;23;20013;-67
2021/06/24 11:16:12;;;;;;;7.60;1.83;;;18.30;57.50;;;;;;6092209;23;20006;-67
2021/06/24 11:18:42;;;;;;;8.07;2.47;;;18.30;57.50;;;;;;6091434;23;20010;-66
2021/06/24 11:21:28;;;;;;;6.63;2.15;;;18.30;57.30;;;;;;6092595;23;20002;-67
2021/06/24 11:24:40;;;;;;;9.48;1.95;;;18.40;57.00;;;;;;6091936;23;20010;-67
2021/06/24 11:27:47;;;;;;;9.45;2.60;;;18.50;56.70;;;;;;6090810;23;20502;-67
2021/06/24 11:30:51;;;;;;;8.23;2.30;;;18.50;56.20;;;;;;6092529;23;20007;-67
2021/06/24 11:37:16;;;;;;;3.58;1.50;;;18.60;55.70;;;;;;6091897;23;20011;-67
2021/06/24 11:40:32;;;;;;;9.13;1.90;;;18.60;55.00;;;;;;6091287;23;20423;-67
2021/06/24 11:43:40;;;;;;;6.07;1.95;;;18.70;55.10;;;;;;6092427;23;20010;-67
2021/06/24 11:46:48;;;;;;;5.93;2.05;;;18.80;55.10;;;;;;6092662;23;20061;-67
2021/06/24 12:00:30;;;;;;;4.50;2.13;;;18.90;54.00;;;;;;6092177;23;20084;-67
2021/06/24 12:03:37;;;;;;;5.57;2.25;;;19.00;54.20;;;;;;6091804;23;20010;-67
2021/06/24 12:06:44;;;;;;;7.55;2.20;;;19.10;54.20;;;;;;6091501;23;20548;-66
2021/06/24 12:09:59;;;;;;;6.25;1.70;;;19.10;54.00;;;;;;6092255;23;20014;-67
2021/06/24 12:13:05;;;;;;;3.75;1.92;;;19.10;53.70;;;;;;6092785;23;20010;-67
2021/06/24 12:16:14;;;;;;;3.97;1.90;;;19.10;53.50;;;;;;6091071;23;20022;-67
2021/06/24 12:19:20;;;;;;;3.97;1.52;;;19.10;53.30;;;;;;6091110;23;20003;-67
2021/06/24 12:22:26;;;;;;;5.25;2.00;;;19.20;53.10;;;;;;6092169;23;19999;-67
2021/06/24 12:25:36;;;;;;;6.05;2.15;;;19.20;52.80;;;;;;6092065;23;20062;-67
2021/06/24 12:28:45;;;;;;;5.72;1.55;;;19.20;52.30;;;;;;6090931;23;20010;-67
2021/06/24 12:32:03;;;;;;;7.30;1.70;;;19.30;52.10;;;;;;6091486;23;20313;-67
2021/06/24 12:35:09;;;;;;;4.55;1.13;;;19.30;52.10;;;;;;6092122;23;20006;-67
2021/06/24 12:38:16;;;;;;;8.32;1.60;;;19.30;52.20;;;;;;6091779;23;20009;-67
2021/06/24 12:41:28;;;;;;;3.90;1.98;;;19.40;52.00;;;;;;6092915;23;20013;-67
2021/06/24 12:44:41;;;;;;;2.55;1.20;;;19.40;51.90;;;;;;6093842;23;20002;-67
2021/06/24 12:47:56;;;;;;;4.88;1.98;;;19.40;51.60;;;;;;6094068;23;20017;-67
2021/06/24 12:51:08;;;;;;;6.05;1.30;;;19.40;51.60;;;;;;6093395;23;20006;-67
2021/06/24 12:53:54;;;;;;;4.32;1.20;;;19.40;51.50;;;;;;6092996;23;20072;-67
2021/06/24 12:57:00;;;;;;;3.00;1.10;;;19.40;51.50;;;;;;6094644;23;20019;-67
2021/06/24 13:00:06;;;;;;;6.13;1.10;;;19.50;51.30;;;;;;6094141;23;20571;-67
2021/06/24 13:03:12;;;;;;;12.30;2.08;;;19.50;50.90;;;;;;6092810;23;20419;-67
2021/06/24 13:06:10;;;;;;;4.72;1.38;;;19.50;50.70;;;;;;6094077;23;19999;-68
2021/06/24 13:09:16;;;;;;;8.57;1.40;;;19.50;50.80;;;;;;6093607;23;20022;-67
2021/06/24 13:12:23;;;;;;;1.70;0.73;;;19.50;50.60;;;;;;6092945;23;20033;-67
2021/06/24 13:15:29;;;;;;;3.35;1.25;;;19.60;50.50;;;;;;6092909;23;20010;-67
2021/06/24 13:18:38;;;;;;;7.47;1.38;;;19.60;50.50;;;;;;6093868;23;20003;-67
2021/06/24 13:21:44;;;;;;;5.38;1.95;;;19.60;50.00;;;;;;6093568;23;20016;-67
2021/06/24 13:24:57;;;;;;;1.42;0.98;;;19.50;49.60;;;;;;6092410;23;19999;-67
2021/06/24 13:27:46;;;;;;;3.42;1.25;;;19.50;49.50;;;;;;6093142;23;20017;-67
2021/06/24 13:30:55;;;;;;;3.08;0.90;;;19.50;49.60;;;;;;6093854;23;20007;-67
2021/06/24 13:34:01;;;;;;;2.28;1.27;;;19.50;49.60;;;;;;6092469;23;20021;-67
2021/06/24 13:37:08;;;;;;;2.40;1.30;;;19.50;49.40;;;;;;6092873;23;20053;-67
2021/06/24 13:40:14;;;;;;;1.45;0.93;;;19.50;49.60;;;;;;6093522;23;20078;-67
2021/06/24 13:43:18;;;;;;;2.92;0.80;;;19.50;49.60;;;;;;6093811;23;19998;-67